sensor_id;sensor_type;location;lat;lon;timestamp;pressure;altitude;pressure_sealevel;temperature;humidity
11525;BME280;5819;49.648;8.330;2023-01-30T00:01:54;101163.00;;;1.26;100.00
11525;BME280;5819;49.648;8.330;2023-01-30T00:04:21;101164.59;;;1.14;100.00
11525;BME280;5819;49.648;8.330;2023-01-30T00:06:49;101164.50;;;1.00;100.00
11525;BME280;5819;49.648;8.330;2023-01-30T00:09:18;101163.59;;;0.98;100.00
11525;BME280;5819;49.648;8.330;2023-01-30T00:11:46;101166.13;;;0.97;100.00
11525;BME280;5819;49.648;8.330;2023-01-30T00:14:14;101156.72;;;0.92;100.00
11525;BME280;5819;49.648;8.330;2023-01-30T00:16:42;101158.53;;;1.06;100.00
11525;BME280;5819;49.648;8.330;2023-01-30T00:19:10;101155.06;;;0.96;100.00
11525;BME280;5819;49.648;8.330;2023-01-30T00:21:39;101145.75;;;1.04;100.00
11525;BME280;5819;49.648;8.330;2023-01-30T00:24:07;101151.59;;;0.92;100.00
11525;BME280;5819;49.648;8.330;2023-01-30T00:26:38;101152.41;;;0.88;100.00
11525;BME280;5819;49.648;8.330;2023-01-30T00:29:09;101150.53;;;0.71;100.00
11525;BME280;5819;49.648;8.330;2023-01-30T00:31:44;101147.13;;;0.73;100.00
11525;BME280;5819;49.648;8.330;2023-01-30T00:34:16;101148.03;;;0.75;100.00
11525;BME280;5819;49.648;8.330;2023-01-30T00:36:48;101142.88;;;0.74;100.00
11525;BME280;5819;49.648;8.330;2023-01-30T00:39:37;101155.63;;;0.69;100.00
11525;BME280;5819;49.648;8.330;2023-01-30T00:42:10;101153.78;;;0.58;100.00
11525;BME280;5819;49.648;8.330;2023-01-30T00:44:58;101133.28;;;0.53;100.00
11525;BME280;5819;49.648;8.330;2023-01-30T00:47:47;101107.72;;;0.58;100.00
11525;BME280;5819;49.648;8.330;2023-01-30T00:50:19;101101.88;;;0.72;100.00
11525;BME280;5819;49.648;8.330;2023-01-30T00:52:46;101073.94;;;0.97;100.00
11525;BME280;5819;49.648;8.330;2023-01-30T00:55:16;101063.81;;;1.10;100.00
11525;BME280;5819;49.648;8.330;2023-01-30T00:57:45;101078.44;;;1.26;100.00
11525;BME280;5819;49.648;8.330;2023-01-30T01:00:14;101058.91;;;1.45;100.00
11525;BME280;5819;49.648;8.330;2023-01-30T01:02:43;101064.72;;;1.15;100.00
11525;BME280;5819;49.648;8.330;2023-01-30T01:05:11;101047.53;;;1.05;100.00
11525;BME280;5819;49.648;8.330;2023-01-30T01:07:39;101053.63;;;1.18;100.00
11525;BME280;5819;49.648;8.330;2023-01-30T01:10:08;101056.28;;;1.31;100.00
11525;BME280;5819;49.648;8.330;2023-01-30T01:12:41;101057.13;;;1.30;100.00
11525;BME280;5819;49.648;8.330;2023-01-30T01:15:12;101063.88;;;1.18;100.00
11525;BME280;5819;49.648;8.330;2023-01-30T01:17:41;101048.41;;;1.06;100.00
11525;BME280;5819;49.648;8.330;2023-01-30T01:20:09;101050.25;;;1.20;100.00
11525;BME280;5819;49.648;8.330;2023-01-30T01:22:37;101057.09;;;1.29;100.00
11525;BME280;5819;49.648;8.330;2023-01-30T01:25:06;101072.31;;;1.03;100.00
11525;BME280;5819;49.648;8.330;2023-01-30T01:27:35;101084.13;;;0.87;100.00
11525;BME280;5819;49.648;8.330;2023-01-30T01:30:06;101087.44;;;0.77;100.00
11525;BME280;5819;49.648;8.330;2023-01-30T01:32:36;101102.88;;;0.83;100.00
11525;BME280;5819;49.648;8.330;2023-01-30T01:35:05;101105.38;;;0.76;100.00
11525;BME280;5819;49.648;8.330;2023-01-30T01:37:33;101111.31;;;0.72;100.00
11525;BME280;5819;49.648;8.330;2023-01-30T01:40:01;101079.72;;;0.73;100.00
11525;BME280;5819;49.648;8.330;2023-01-30T01:42:47;101067.06;;;0.92;100.00
11525;BME280;5819;49.648;8.330;2023-01-30T01:45:18;101061.19;;;1.00;100.00
11525;BME280;5819;49.648;8.330;2023-01-30T01:47:58;101062.97;;;1.11;100.00
11525;BME280;5819;49.648;8.330;2023-01-30T01:50:30;101062.09;;;1.08;100.00
11525;BME280;5819;49.648;8.330;2023-01-30T01:53:05;101048.38;;;1.01;100.00
11525;BME280;5819;49.648;8.330;2023-01-30T01:55:35;101039.78;;;0.91;100.00
11525;BME280;5819;49.648;8.330;2023-01-30T01:58:08;101021.06;;;1.02;100.00
11525;BME280;5819;49.648;8.330;2023-01-30T02:00:38;101021.97;;;1.10;100.00
11525;BME280;5819;49.648;8.330;2023-01-30T02:03:11;101037.34;;;1.08;100.00
11525;BME280;5819;49.648;8.330;2023-01-30T02:05:47;101034.03;;;1.26;100.00
11525;BME280;5819;49.648;8.330;2023-01-30T02:08:19;101030.44;;;1.01;100.00
11525;BME280;5819;49.648;8.330;2023-01-30T02:10:52;101036.53;;;1.17;100.00
11525;BME280;5819;49.648;8.330;2023-01-30T02:13:24;101024.44;;;1.01;100.00
11525;BME280;5819;49.648;8.330;2023-01-30T02:15:54;101021.06;;;1.03;100.00
11525;BME280;5819;49.648;8.330;2023-01-30T02:18:26;101017.59;;;0.97;100.00
11525;BME280;5819;49.648;8.330;2023-01-30T02:21:26;101024.44;;;0.98;100.00
11525;BME280;5819;49.648;8.330;2023-01-30T02:24:32;101014.25;;;1.04;100.00
11525;BME280;5819;49.648;8.330;2023-01-30T02:27:19;101009.19;;;1.17;100.00
11525;BME280;5819;49.648;8.330;2023-01-30T02:33:11;100992.97;;;1.15;100.00
11525;BME280;5819;49.648;8.330;2023-01-30T02:35:47;100983.69;;;1.35;100.00
11525;BME280;5819;49.648;8.330;2023-01-30T02:38:30;100982.81;;;1.33;100.00
11525;BME280;5819;49.648;8.330;2023-01-30T02:41:09;100975.22;;;1.50;100.00
11525;BME280;5819;49.648;8.330;2023-01-30T02:43:45;100992.34;;;1.59;100.00
11525;BME280;5819;49.648;8.330;2023-01-30T02:46:19;100997.38;;;1.39;100.00
11525;BME280;5819;49.648;8.330;2023-01-30T02:48:54;101004.97;;;1.19;100.00
11525;BME280;5819;49.648;8.330;2023-01-30T02:51:28;101009.19;;;1.17;100.00
11525;BME280;5819;49.648;8.330;2023-01-30T02:53:58;100993.84;;;1.16;100.00
11525;BME280;5819;49.648;8.330;2023-01-30T02:56:26;100993.06;;;1.27;100.00
11525;BME280;5819;49.648;8.330;2023-01-30T02:58:58;100994.75;;;1.30;100.00
11525;BME280;5819;49.648;8.330;2023-01-30T03:04:29;100984.50;;;1.24;100.00
11525;BME280;5819;49.648;8.330;2023-01-30T03:07:09;100969.22;;;1.45;100.00
11525;BME280;5819;49.648;8.330;2023-01-30T03:09:47;100980.31;;;1.49;100.00
11525;BME280;5819;49.648;8.330;2023-01-30T03:12:25;100978.63;;;1.51;100.00
11525;BME280;5819;49.648;8.330;2023-01-30T03:14:59;100976.00;;;1.35;100.00
11525;BME280;5819;49.648;8.330;2023-01-30T03:17:31;100980.31;;;1.44;100.00
11525;BME280;5819;49.648;8.330;2023-01-30T03:20:03;100973.41;;;1.32;100.00
11525;BME280;5819;49.648;8.330;2023-01-30T03:22:31;100964.91;;;1.41;100.00
11525;BME280;5819;49.648;8.330;2023-01-30T03:24:59;100969.22;;;1.45;100.00
11525;BME280;5819;49.648;8.330;2023-01-30T03:27:29;100975.97;;;1.31;100.00
11525;BME280;5819;49.648;8.330;2023-01-30T03:29:57;100970.06;;;1.44;100.00
11525;BME280;5819;49.648;8.330;2023-01-30T03:32:24;100981.97;;;1.28;100.00
11525;BME280;5819;49.648;8.330;2023-01-30T03:34:54;100978.53;;;1.28;100.00
11525;BME280;5819;49.648;8.330;2023-01-30T03:37:24;100975.16;;;1.35;100.00
11525;BME280;5819;49.648;8.330;2023-01-30T03:39:53;100975.06;;;1.18;100.00
11525;BME280;5819;49.648;8.330;2023-01-30T03:42:21;100971.69;;;1.27;100.00
11525;BME280;5819;49.648;8.330;2023-01-30T03:44:50;100974.22;;;1.19;100.00
11525;BME280;5819;49.648;8.330;2023-01-30T03:47:18;100979.34;;;1.16;100.00
11525;BME280;5819;49.648;8.330;2023-01-30T03:49:48;100974.19;;;1.21;100.00
11525;BME280;5819;49.648;8.330;2023-01-30T03:52:15;100980.19;;;1.20;100.00
11525;BME280;5819;49.648;8.330;2023-01-30T03:54:45;100975.03;;;1.15;100.00
11525;BME280;5819;49.648;8.330;2023-01-30T03:57:14;100975.16;;;1.35;100.00
11525;BME280;5819;49.648;8.330;2023-01-30T03:59:42;100973.41;;;1.28;100.00
11525;BME280;5819;49.648;8.330;2023-01-30T04:02:13;100965.69;;;1.25;100.00
11525;BME280;5819;49.648;8.330;2023-01-30T04:04:43;100965.72;;;1.26;100.00
11525;BME280;5819;49.648;8.330;2023-01-30T04:07:12;100950.50;;;1.73;100.00
11525;BME280;5819;49.648;8.330;2023-01-30T04:09:40;100941.91;;;1.58;100.00
11525;BME280;5819;49.648;8.330;2023-01-30T04:12:11;100954.72;;;1.58;100.00
11525;BME280;5819;49.648;8.330;2023-01-30T04:14:48;100947.03;;;1.61;100.00
11525;BME280;5819;49.648;8.330;2023-01-30T04:17:27;100943.63;;;1.59;100.00
11525;BME280;5819;49.648;8.330;2023-01-30T04:20:13;100954.72;;;1.50;100.00
11525;BME280;5819;49.648;8.330;2023-01-30T04:22:47;100943.53;;;1.40;100.00
11525;BME280;5819;49.648;8.330;2023-01-30T04:25:16;100951.25;;;1.36;100.00
11525;BME280;5819;49.648;8.330;2023-01-30T04:27:46;100931.63;;;1.46;100.00
11525;BME280;5819;49.648;8.330;2023-01-30T04:30:19;100929.97;;;1.61;100.00
11525;BME280;5819;49.648;8.330;2023-01-30T04:32:53;100929.97;;;1.60;100.00
11525;BME280;5819;49.648;8.330;2023-01-30T04:35:21;100926.50;;;1.49;100.00
11525;BME280;5819;49.648;8.330;2023-01-30T04:37:49;100924.00;;;1.62;100.00
11525;BME280;5819;49.648;8.330;2023-01-30T04:40:19;100924.91;;;1.79;100.00
11525;BME280;5819;49.648;8.330;2023-01-30T04:42:48;100923.94;;;1.53;100.00
11525;BME280;5819;49.648;8.330;2023-01-30T04:45:45;100906.88;;;1.54;100.00
11525;BME280;5819;49.648;8.330;2023-01-30T04:48:14;100902.66;;;1.75;100.00
11525;BME280;5819;49.648;8.330;2023-01-30T04:50:46;100909.44;;;1.57;100.00
11525;BME280;5819;49.648;8.330;2023-01-30T04:53:14;100906.88;;;1.48;100.00
11525;BME280;5819;49.648;8.330;2023-01-30T04:55:42;100901.78;;;1.60;100.00
11525;BME280;5819;49.648;8.330;2023-01-30T04:58:11;100881.22;;;1.49;100.00
11525;BME280;5819;49.648;8.330;2023-01-30T05:00:39;100886.38;;;1.51;100.00
11525;BME280;5819;49.648;8.330;2023-01-30T05:03:07;100884.59;;;1.37;100.00
11525;BME280;5819;49.648;8.330;2023-01-30T05:05:35;100868.41;;;1.43;100.00
11525;BME280;5819;49.648;8.330;2023-01-30T05:08:07;100859.78;;;1.18;100.00
11525;BME280;5819;49.648;8.330;2023-01-30T05:10:35;100852.09;;;1.20;100.00
11525;BME280;5819;49.648;8.330;2023-01-30T05:13:03;100850.34;;;1.13;100.00
11525;BME280;5819;49.648;8.330;2023-01-30T05:15:33;100856.34;;;1.18;100.00
11525;BME280;5819;49.648;8.330;2023-01-30T05:18:01;100846.09;;;1.13;100.00
11525;BME280;5819;49.648;8.330;2023-01-30T05:20:28;100832.47;;;1.20;100.00
11525;BME280;5819;49.648;8.330;2023-01-30T05:22:56;100833.34;;;1.30;100.00
11525;BME280;5819;49.648;8.330;2023-01-30T05:25:24;100846.16;;;1.28;100.00
11525;BME280;5819;49.648;8.330;2023-01-30T05:27:52;100841.88;;;1.30;100.00
11525;BME280;5819;49.648;8.330;2023-01-30T05:30:19;100839.28;;;1.21;100.00
11525;BME280;5819;49.648;8.330;2023-01-30T05:32:49;100844.44;;;1.26;100.00
11525;BME280;5819;49.648;8.330;2023-01-30T05:35:16;100847.03;;;1.38;100.00
11525;BME280;5819;49.648;8.330;2023-01-30T05:37:49;100863.22;;;1.26;100.00
11525;BME280;5819;49.648;8.330;2023-01-30T05:40:17;100866.66;;;1.28;100.00
11525;BME280;5819;49.648;8.330;2023-01-30T05:42:45;100876.88;;;1.27;100.00
11525;BME280;5819;49.648;8.330;2023-01-30T05:45:14;100879.44;;;1.27;100.00
11525;BME280;5819;49.648;8.330;2023-01-30T05:47:42;100884.59;;;1.28;100.00
11525;BME280;5819;49.648;8.330;2023-01-30T05:50:13;100865.78;;;1.20;100.00
11525;BME280;5819;49.648;8.330;2023-01-30T05:52:40;100860.69;;;1.31;100.00
11525;BME280;5819;49.648;8.330;2023-01-30T05:55:08;100868.34;;;1.28;100.00
11525;BME280;5819;49.648;8.330;2023-01-30T05:57:36;100875.16;;;1.26;100.00
11525;BME280;5819;49.648;8.330;2023-01-30T06:00:06;100878.56;;;1.25;100.00
11525;BME280;5819;49.648;8.330;2023-01-30T06:02:38;100861.53;;;1.34;100.00
11525;BME280;5819;49.648;8.330;2023-01-30T06:05:07;100868.38;;;1.45;100.00
11525;BME280;5819;49.648;8.330;2023-01-30T06:07:36;100850.44;;;1.41;100.00
11525;BME280;5819;49.648;8.330;2023-01-30T06:10:04;100844.47;;;1.41;100.00
11525;BME280;5819;49.648;8.330;2023-01-30T06:12:32;100825.69;;;1.44;100.00
11525;BME280;5819;49.648;8.330;2023-01-30T06:15:01;100817.16;;;1.66;100.00
11525;BME280;5819;49.648;8.330;2023-01-30T06:17:28;100810.34;;;1.74;100.00
11525;BME280;5819;49.648;8.330;2023-01-30T06:19:57;100807.81;;;1.80;100.00
11525;BME280;5819;49.648;8.330;2023-01-30T06:22:25;100795.81;;;1.94;100.00
11525;BME280;5819;49.648;8.330;2023-01-30T06:24:54;100798.38;;;2.03;100.00
11525;BME280;5819;49.648;8.330;2023-01-30T06:27:21;100789.81;;;2.10;100.00
11525;BME280;5819;49.648;8.330;2023-01-30T06:29:50;100780.41;;;2.14;100.00
11525;BME280;5819;49.648;8.330;2023-01-30T06:32:17;100782.09;;;2.18;100.00
11525;BME280;5819;49.648;8.330;2023-01-30T06:34:45;100794.94;;;2.10;100.00
11525;BME280;5819;49.648;8.330;2023-01-30T06:37:13;100791.53;;;2.04;100.00
11525;BME280;5819;49.648;8.330;2023-01-30T06:39:41;100794.94;;;2.19;100.00
11525;BME280;5819;49.648;8.330;2023-01-30T06:42:11;100804.38;;;2.20;100.00
11525;BME280;5819;49.648;8.330;2023-01-30T06:44:39;100813.78;;;1.99;100.00
11525;BME280;5819;49.648;8.330;2023-01-30T06:47:08;100818.88;;;2.05;100.00
11525;BME280;5819;49.648;8.330;2023-01-30T06:49:36;100800.97;;;2.00;100.00
11525;BME280;5819;49.648;8.330;2023-01-30T06:52:04;100804.34;;;1.85;100.00
11525;BME280;5819;49.648;8.330;2023-01-30T06:54:32;100801.78;;;1.93;100.00
11525;BME280;5819;49.648;8.330;2023-01-30T06:57:00;100800.06;;;2.09;100.00
11525;BME280;5819;49.648;8.330;2023-01-30T06:59:29;100800.94;;;2.14;100.00
11525;BME280;5819;49.648;8.330;2023-01-30T07:01:57;100794.09;;;2.05;100.00
11525;BME280;5819;49.648;8.330;2023-01-30T07:04:25;100794.94;;;2.15;100.00
11525;BME280;5819;49.648;8.330;2023-01-30T07:06:53;100796.69;;;2.08;100.00
11525;BME280;5819;49.648;8.330;2023-01-30T07:09:21;100796.66;;;2.20;100.00
11525;BME280;5819;49.648;8.330;2023-01-30T07:11:48;100791.47;;;2.37;100.00
11525;BME280;5819;49.648;8.330;2023-01-30T07:14:16;100794.09;;;2.19;100.00
11525;BME280;5819;49.648;8.330;2023-01-30T07:16:45;100786.38;;;2.19;100.00
11525;BME280;5819;49.648;8.330;2023-01-30T07:19:13;100779.56;;;2.24;100.00
11525;BME280;5819;49.648;8.330;2023-01-30T07:21:41;100790.69;;;2.12;100.00
11525;BME280;5819;49.648;8.330;2023-01-30T07:24:09;100783.78;;;2.34;100.00
11525;BME280;5819;49.648;8.330;2023-01-30T07:26:37;100790.66;;;2.32;100.00
11525;BME280;5819;49.648;8.330;2023-01-30T07:29:05;100800.94;;;2.06;100.00
11525;BME280;5819;49.648;8.330;2023-01-30T07:31:32;100806.91;;;2.19;100.00
11525;BME280;5819;49.648;8.330;2023-01-30T07:34:03;100811.19;;;2.14;100.00
11525;BME280;5819;49.648;8.330;2023-01-30T07:36:30;100806.06;;;2.05;100.00
11525;BME280;5819;49.648;8.330;2023-01-30T07:39:01;100815.47;;;2.28;100.00
11525;BME280;5819;49.648;8.330;2023-01-30T07:41:28;100794.94;;;2.27;100.00
11525;BME280;5819;49.648;8.330;2023-01-30T07:43:56;100789.78;;;2.36;100.00
11525;BME280;5819;49.648;8.330;2023-01-30T07:46:24;100817.19;;;2.20;100.00
11525;BME280;5819;49.648;8.330;2023-01-30T07:48:52;100806.88;;;2.37;100.00
11525;BME280;5819;49.648;8.330;2023-01-30T07:51:21;100802.59;;;2.42;100.00
11525;BME280;5819;49.648;8.330;2023-01-30T07:53:52;100799.19;;;2.25;100.00
11525;BME280;5819;49.648;8.330;2023-01-30T07:56:27;100800.94;;;2.06;100.00
11525;BME280;5819;49.648;8.330;2023-01-30T07:58:56;100824.03;;;2.03;100.00
11525;BME280;5819;49.648;8.330;2023-01-30T08:01:23;100818.91;;;2.02;100.00
11525;BME280;5819;49.648;8.330;2023-01-30T08:03:51;100813.75;;;2.17;100.00
11525;BME280;5819;49.648;8.330;2023-01-30T08:06:30;100823.19;;;2.24;100.00
11525;BME280;5819;49.648;8.330;2023-01-30T08:09:02;100822.31;;;2.26;100.00
11525;BME280;5819;49.648;8.330;2023-01-30T08:11:30;100815.44;;;2.33;100.00
11525;BME280;5819;49.648;8.330;2023-01-30T08:13:58;100812.91;;;2.27;100.00
11525;BME280;5819;49.648;8.330;2023-01-30T08:16:28;100821.44;;;2.44;100.00
11525;BME280;5819;49.648;8.330;2023-01-30T08:18:57;100811.19;;;2.37;100.00
11525;BME280;5819;49.648;8.330;2023-01-30T08:21:25;100823.13;;;2.33;100.00
11525;BME280;5819;49.648;8.330;2023-01-30T08:23:55;100819.72;;;2.43;100.00
11525;BME280;5819;49.648;8.330;2023-01-30T08:26:25;100804.31;;;2.45;100.00
11525;BME280;5819;49.648;8.330;2023-01-30T08:28:54;100788.88;;;2.54;100.00
11525;BME280;5819;49.648;8.330;2023-01-30T08:31:22;100791.50;;;2.45;100.00
11525;BME280;5819;49.648;8.330;2023-01-30T08:33:50;100790.63;;;2.47;100.00
11525;BME280;5819;49.648;8.330;2023-01-30T08:36:18;100788.00;;;2.53;100.00
11525;BME280;5819;49.648;8.330;2023-01-30T08:38:45;100799.16;;;2.51;100.00
11525;BME280;5819;49.648;8.330;2023-01-30T08:41:15;100788.03;;;2.55;100.00
11525;BME280;5819;49.648;8.330;2023-01-30T08:43:42;100810.28;;;2.51;100.00
11525;BME280;5819;49.648;8.330;2023-01-30T08:46:11;100802.59;;;2.48;100.00
11525;BME280;5819;49.648;8.330;2023-01-30T08:48:40;100799.16;;;2.52;100.00
11525;BME280;5819;49.648;8.330;2023-01-30T08:51:16;100791.44;;;2.54;100.00
11525;BME280;5819;49.648;8.330;2023-01-30T08:53:44;100780.28;;;2.61;100.00
11525;BME280;5819;49.648;8.330;2023-01-30T08:56:12;100794.88;;;2.56;100.00
11525;BME280;5819;49.648;8.330;2023-01-30T08:58:41;100790.56;;;2.61;100.00
11525;BME280;5819;49.648;8.330;2023-01-30T09:01:12;100790.59;;;2.59;100.00
11525;BME280;5819;49.648;8.330;2023-01-30T09:03:40;100775.97;;;2.69;100.00
11525;BME280;5819;49.648;8.330;2023-01-30T09:06:08;100763.16;;;2.72;100.00
11525;BME280;5819;49.648;8.330;2023-01-30T09:08:35;100764.81;;;2.77;100.00
11525;BME280;5819;49.648;8.330;2023-01-30T09:11:04;100757.13;;;2.77;100.00
11525;BME280;5819;49.648;8.330;2023-01-30T09:13:33;100765.72;;;2.76;100.00
11525;BME280;5819;49.648;8.330;2023-01-30T09:16:05;100759.69;;;2.74;100.00
11525;BME280;5819;49.648;8.330;2023-01-30T09:18:33;100760.53;;;2.79;100.00
11525;BME280;5819;49.648;8.330;2023-01-30T09:21:02;100749.41;;;2.79;100.00
11525;BME280;5819;49.648;8.330;2023-01-30T09:23:30;100732.34;;;2.72;100.00
11525;BME280;5819;49.648;8.330;2023-01-30T09:25:58;100728.84;;;2.83;100.00
11525;BME280;5819;49.648;8.330;2023-01-30T09:28:28;100729.69;;;2.86;100.00
11525;BME280;5819;49.648;8.330;2023-01-30T09:30:56;100739.03;;;2.97;100.00
11525;BME280;5819;49.648;8.330;2023-01-30T09:33:26;100736.53;;;2.93;100.00
11525;BME280;5819;49.648;8.330;2023-01-30T09:35:54;100737.31;;;3.01;100.00
11525;BME280;5819;49.648;8.330;2023-01-30T09:38:23;100747.59;;;3.02;100.00
11525;BME280;5819;49.648;8.330;2023-01-30T09:44:02;100754.44;;;3.02;100.00
11525;BME280;5819;49.648;8.330;2023-01-30T09:46:38;100745.88;;;2.98;100.00
11525;BME280;5819;49.648;8.330;2023-01-30T09:49:18;100745.88;;;3.00;100.00
11525;BME280;5819;49.648;8.330;2023-01-30T09:51:59;100760.44;;;2.98;100.00
11525;BME280;5819;49.648;8.330;2023-01-30T09:54:30;100764.78;;;2.93;100.00
11525;BME280;5819;49.648;8.330;2023-01-30T09:57:10;100762.97;;;3.11;100.00
11525;BME280;5819;49.648;8.330;2023-01-30T09:59:55;100756.06;;;3.18;100.00
11525;BME280;5819;49.648;8.330;2023-01-30T10:02:38;100755.22;;;3.16;100.00
11525;BME280;5819;49.648;8.330;2023-01-30T10:05:09;100747.53;;;3.11;100.00
11525;BME280;5819;49.648;8.330;2023-01-30T10:07:44;100752.63;;;3.20;100.00
11525;BME280;5819;49.648;8.330;2023-01-30T10:10:18;100746.59;;;3.23;100.00
11525;BME280;5819;49.648;8.330;2023-01-30T10:12:53;100735.38;;;3.36;100.00
11525;BME280;5819;49.648;8.330;2023-01-30T10:15:31;100742.19;;;3.43;100.00
11525;BME280;5819;49.648;8.330;2023-01-30T10:18:20;100750.72;;;3.47;100.00
11525;BME280;5819;49.648;8.330;2023-01-30T10:21:02;100748.94;;;3.55;100.00
11525;BME280;5819;49.648;8.330;2023-01-30T10:23:43;100749.75;;;3.63;100.00
11525;BME280;5819;49.648;8.330;2023-01-30T10:26:16;100762.78;;;3.37;100.00
11525;BME280;5819;49.648;8.330;2023-01-30T10:28:53;100766.25;;;3.36;100.00
11525;BME280;5819;49.648;8.330;2023-01-30T10:31:36;100755.88;;;3.45;100.00
11525;BME280;5819;49.648;8.330;2023-01-30T10:34:12;100752.28;;;3.67;100.00
11525;BME280;5819;49.648;8.330;2023-01-30T10:36:47;100753.72;;;3.97;100.00
11525;BME280;5819;49.648;8.330;2023-01-30T10:39:23;100754.00;;;3.68;100.00
11525;BME280;5819;49.648;8.330;2023-01-30T10:41:57;100741.91;;;3.81;100.00
11525;BME280;5819;49.648;8.330;2023-01-30T10:44:27;100738.44;;;3.84;100.00
11525;BME280;5819;49.648;8.330;2023-01-30T10:47:28;100743.47;;;3.94;100.00
11525;BME280;5819;49.648;8.330;2023-01-30T10:50:15;100733.22;;;3.90;100.00
11525;BME280;5819;49.648;8.330;2023-01-30T10:52:51;100738.34;;;3.90;100.00
11525;BME280;5819;49.648;8.330;2023-01-30T10:55:28;100738.47;;;3.77;100.00
11525;BME280;5819;49.648;8.330;2023-01-30T10:58:09;100723.88;;;3.78;100.00
11525;BME280;5819;49.648;8.330;2023-01-30T11:00:42;100712.59;;;3.94;100.00
11525;BME280;5819;49.648;8.330;2023-01-30T11:03:20;100722.91;;;3.90;100.00
11525;BME280;5819;49.648;8.330;2023-01-30T11:05:52;100715.09;;;4.02;100.00
11525;BME280;5819;49.648;8.330;2023-01-30T11:08:24;100731.56;;;3.83;100.00
11525;BME280;5819;49.648;8.330;2023-01-30T11:10:53;100706.81;;;3.72;100.00
11525;BME280;5819;49.648;8.330;2023-01-30T11:13:25;100709.38;;;3.72;100.00
11525;BME280;5819;49.648;8.330;2023-01-30T11:15:58;100715.44;;;3.62;100.00
11525;BME280;5819;49.648;8.330;2023-01-30T11:18:26;100722.34;;;3.57;100.00
11525;BME280;5819;49.648;8.330;2023-01-30T11:21:19;100721.50;;;3.60;100.00
11525;BME280;5819;49.648;8.330;2023-01-30T11:24:04;100719.66;;;3.72;100.00
11525;BME280;5819;49.648;8.330;2023-01-30T11:26:34;100706.81;;;3.72;100.00
11525;BME280;5819;49.648;8.330;2023-01-30T11:29:25;100711.06;;;3.73;100.00
11525;BME280;5819;49.648;8.330;2023-01-30T11:31:53;100712.56;;;3.99;100.00
11525;BME280;5819;49.648;8.330;2023-01-30T11:34:22;100709.63;;;4.31;100.00
11525;BME280;5819;49.648;8.330;2023-01-30T11:36:51;100707.00;;;4.35;100.00
11525;BME280;5819;49.648;8.330;2023-01-30T11:39:27;100697.28;;;4.58;100.00
11525;BME280;5819;49.648;8.330;2023-01-30T11:41:58;100679.66;;;4.91;100.00
11525;BME280;5819;49.648;8.330;2023-01-30T11:44:32;100660.38;;;5.17;100.00
11525;BME280;5819;49.648;8.330;2023-01-30T11:47:03;100674.34;;;5.04;100.00
11525;BME280;5819;49.648;8.330;2023-01-30T11:49:36;100683.47;;;4.64;100.00
11525;BME280;5819;49.648;8.330;2023-01-30T11:52:16;100697.44;;;4.48;100.00
11525;BME280;5819;49.648;8.330;2023-01-30T11:54:46;100703.34;;;4.56;100.00
11525;BME280;5819;49.648;8.330;2023-01-30T11:57:16;100693.84;;;4.59;100.00
11525;BME280;5819;49.648;8.330;2023-01-30T11:59:47;100704.25;;;4.50;100.00
11525;BME280;5819;49.648;8.330;2023-01-30T12:02:20;100711.22;;;4.42;100.00
11525;BME280;5819;49.648;8.330;2023-01-30T12:04:53;100705.59;;;4.79;100.00
11525;BME280;5819;49.648;8.330;2023-01-30T12:07:24;100702.06;;;4.87;100.00
11525;BME280;5819;49.648;8.330;2023-01-30T12:09:55;100708.00;;;4.92;100.00
11525;BME280;5819;49.648;8.330;2023-01-30T12:12:27;100708.72;;;5.02;100.00
11525;BME280;5819;49.648;8.330;2023-01-30T12:15:05;100723.25;;;5.09;100.00
11525;BME280;5819;49.648;8.330;2023-01-30T12:17:42;100721.75;;;4.91;100.00
11525;BME280;5819;49.648;8.330;2023-01-30T12:20:15;100718.25;;;4.97;100.00
11525;BME280;5819;49.648;8.330;2023-01-30T12:22:48;100724.63;;;5.31;100.00
11525;BME280;5819;49.648;8.330;2023-01-30T12:25:24;100716.94;;;5.82;100.00
11525;BME280;5819;49.648;8.330;2023-01-30T12:27:57;100723.47;;;5.50;99.45
11525;BME280;5819;49.648;8.330;2023-01-30T12:30:35;100725.13;;;5.54;99.68
11525;BME280;5819;49.648;8.330;2023-01-30T12:33:04;100715.16;;;5.32;100.00
11525;BME280;5819;49.648;8.330;2023-01-30T12:35:48;100721.78;;;5.49;100.00
11525;BME280;5819;49.648;8.330;2023-01-30T12:38:27;100713.84;;;5.61;100.00
11525;BME280;5819;49.648;8.330;2023-01-30T12:41:11;100707.25;;;5.44;100.00
11525;BME280;5819;49.648;8.330;2023-01-30T12:43:55;100712.16;;;5.04;100.00
11525;BME280;5819;49.648;8.330;2023-01-30T12:46:38;100702.50;;;5.16;100.00
11525;BME280;5819;49.648;8.330;2023-01-30T12:49:40;100702.88;;;5.47;100.00
11525;BME280;5819;49.648;8.330;2023-01-30T12:52:44;100698.94;;;5.77;100.00
11525;BME280;5819;49.648;8.330;2023-01-30T12:55:23;100694.13;;;5.57;100.00
11525;BME280;5819;49.648;8.330;2023-01-30T12:57:58;100703.59;;;5.57;100.00
11525;BME280;5819;49.648;8.330;2023-01-30T13:00:39;100713.50;;;5.28;100.00
11525;BME280;5819;49.648;8.330;2023-01-30T13:03:21;100718.78;;;5.20;100.00
11525;BME280;5819;49.648;8.330;2023-01-30T13:05:55;100710.53;;;4.95;100.00
11525;BME280;5819;49.648;8.330;2023-01-30T13:08:39;100721.59;;;5.02;100.00
11525;BME280;5819;49.648;8.330;2023-01-30T13:11:20;100721.59;;;5.05;100.00
11525;BME280;5819;49.648;8.330;2023-01-30T13:14:02;100721.22;;;4.68;100.00
11525;BME280;5819;49.648;8.330;2023-01-30T13:16:36;100716.88;;;4.71;100.00
11525;BME280;5819;49.648;8.330;2023-01-30T13:19:13;100715.47;;;4.46;100.00
11525;BME280;5819;49.648;8.330;2023-01-30T13:21:52;100725.81;;;4.43;100.00
11525;BME280;5819;49.648;8.330;2023-01-30T13:24:28;100726.84;;;4.27;100.00
11525;BME280;5819;49.648;8.330;2023-01-30T13:27:14;100722.47;;;4.35;100.00
11525;BME280;5819;49.648;8.330;2023-01-30T13:29:47;100723.09;;;4.57;100.00
11525;BME280;5819;49.648;8.330;2023-01-30T13:32:24;100718.94;;;4.44;100.00
11525;BME280;5819;49.648;8.330;2023-01-30T13:34:54;100724.09;;;4.42;100.00
11525;BME280;5819;49.648;8.330;2023-01-30T13:37:23;100734.19;;;4.60;100.00